Time;durP1;ratioP1;P1;durP2;ratioP2;P2;SDS_P1;SDS_P2;PMS_P1;PMS_P2;Temp;Humidity;BMP_temperature;BMP_pressure;BME280_temperature;BME280_humidity;BME280_pressure;Samples;Min_cycle;Max_cycle;Signal;HPM_P1;HPM_P2
2022/04/02 00:01:06;;;;;;;3.45;1.30;;;2.50;99.90;;;;;;5023208;28;20089;-57
2022/04/02 00:03:32;;;;;;;2.20;0.90;;;2.50;99.90;;;;;;5023629;28;20304;-58
2022/04/02 00:05:59;;;;;;;2.20;1.00;;;2.50;99.90;;;;;;5023910;28;20052;-59
2022/04/02 00:08:26;;;;;;;2.33;1.02;;;2.50;99.90;;;;;;5024307;28;20049;-58
2022/04/02 00:10:53;;;;;;;2.78;1.23;;;2.50;99.90;;;;;;5023974;28;20050;-59
2022/04/02 00:13:20;;;;;;;1.33;0.98;;;2.50;99.90;;;;;;5024432;28;20065;-58
2022/04/02 00:15:46;;;;;;;1.55;0.73;;;2.40;99.90;;;;;;5022785;28;20081;-58
2022/04/02 00:18:13;;;;;;;2.47;1.10;;;2.40;99.90;;;;;;5015899;28;20117;-57
2022/04/02 00:20:40;;;;;;;1.85;0.80;;;2.40;99.90;;;;;;5006494;28;20138;-57
2022/04/02 00:25:52;;;;;;;1.15;0.70;;;2.40;99.90;;;;;;5002765;28;20519;-58
2022/04/02 00:28:18;;;;;;;1.65;1.00;;;2.30;99.90;;;;;;5014230;28;20133;-58
2022/04/02 00:30:45;;;;;;;2.53;0.98;;;2.30;99.90;;;;;;5005238;28;20484;-58
2022/04/02 00:33:12;;;;;;;1.70;0.80;;;2.30;99.90;;;;;;5012336;28;20054;-57
2022/04/02 00:35:40;;;;;;;0.50;0.50;;;2.20;99.90;;;;;;5018081;28;20057;-57
2022/04/02 00:38:07;;;;;;;1.42;0.80;;;2.20;99.90;;;;;;5004019;28;20056;-58
2022/04/02 00:40:34;;;;;;;2.28;0.90;;;2.20;99.90;;;;;;5011679;28;20064;-58
2022/04/02 00:43:01;;;;;;;0.75;0.50;;;2.20;99.90;;;;;;5022526;28;20132;-59
2022/04/02 00:45:28;;;;;;;1.17;0.68;;;2.20;99.90;;;;;;5023159;28;20085;-58
2022/04/02 00:47:55;;;;;;;1.30;0.70;;;2.10;99.90;;;;;;5023541;28;20211;-57
2022/04/02 00:50:22;;;;;;;1.25;0.65;;;2.10;99.90;;;;;;5021640;28;20756;-58
2022/04/02 00:52:52;;;;;;;1.40;0.70;;;2.10;99.90;;;;;;5014894;28;20093;-58
2022/04/02 00:55:18;;;;;;;1.88;0.82;;;2.00;99.90;;;;;;5022973;28;20152;-58
2022/04/02 00:57:45;;;;;;;2.08;0.80;;;1.90;99.90;;;;;;5023798;28;20145;-58
2022/04/02 01:00:13;;;;;;;2.20;0.88;;;1.90;99.90;;;;;;5015342;28;20085;-59
2022/04/02 01:02:40;;;;;;;2.22;1.20;;;1.90;99.90;;;;;;5021651;28;20105;-58
2022/04/02 01:05:08;;;;;;;1.50;0.80;;;1.90;99.90;;;;;;5022117;28;20049;-59
2022/04/02 01:07:35;;;;;;;1.90;0.90;;;1.90;99.90;;;;;;5021904;28;20088;-58
2022/04/02 01:10:03;;;;;;;2.55;0.90;;;1.90;99.90;;;;;;5022145;28;20097;-58
2022/04/02 01:12:30;;;;;;;1.48;0.82;;;2.00;99.90;;;;;;5023214;28;20120;-58
2022/04/02 01:14:57;;;;;;;1.50;0.77;;;2.00;99.90;;;;;;5022472;28;20125;-58
2022/04/02 01:17:23;;;;;;;3.50;1.30;;;2.00;99.90;;;;;;5022747;28;20083;-59
2022/04/02 01:19:50;;;;;;;1.35;0.70;;;2.00;99.90;;;;;;5022788;28;20049;-58
2022/04/02 01:22:17;;;;;;;1.98;0.80;;;2.00;99.90;;;;;;5022671;28;20441;-58
2022/04/02 01:24:44;;;;;;;1.92;0.75;;;2.00;99.90;;;;;;5023011;28;20095;-58
2022/04/02 01:27:10;;;;;;;1.20;0.75;;;2.00;99.90;;;;;;5021283;28;20088;-57
2022/04/02 01:29:37;;;;;;;1.38;0.65;;;1.90;99.90;;;;;;5010496;28;20481;-59
2022/04/02 01:32:04;;;;;;;1.58;0.70;;;1.90;99.90;;;;;;5019812;28;20084;-58
2022/04/02 01:34:32;;;;;;;2.03;0.82;;;1.80;99.90;;;;;;5014925;28;20581;-57
2022/04/02 01:36:59;;;;;;;0.95;0.60;;;1.80;99.90;;;;;;5003617;28;20099;-59
2022/04/02 01:39:26;;;;;;;1.23;0.63;;;1.70;99.90;;;;;;5004298;28;20523;-58
2022/04/02 01:41:53;;;;;;;2.15;0.98;;;1.70;99.90;;;;;;5014640;28;20091;-58
2022/04/02 01:44:19;;;;;;;1.50;0.82;;;1.60;99.90;;;;;;5023605;28;20133;-59
2022/04/02 01:46:46;;;;;;;1.02;0.63;;;1.60;99.90;;;;;;5023269;28;20053;-59
2022/04/02 01:49:13;;;;;;;1.73;0.85;;;1.50;99.90;;;;;;5024517;28;20136;-58
2022/04/02 01:51:40;;;;;;;2.95;0.95;;;1.50;99.90;;;;;;5023027;28;20057;-58
2022/04/02 01:54:06;;;;;;;1.35;0.88;;;1.50;99.90;;;;;;5024310;28;20508;-58
2022/04/02 01:56:34;;;;;;;2.03;0.85;;;1.50;99.90;;;;;;5024038;28;20148;-57
2022/04/02 01:59:00;;;;;;;1.50;0.90;;;1.50;99.90;;;;;;5024120;28;20097;-57
2022/04/02 02:01:27;;;;;;;1.75;1.00;;;1.50;99.90;;;;;;5023090;28;20136;-58
2022/04/02 02:03:54;;;;;;;2.67;1.10;;;1.50;99.90;;;;;;5023544;28;20400;-57
2022/04/02 02:06:22;;;;;;;2.00;0.95;;;1.40;99.90;;;;;;5023236;28;20111;-58
2022/04/02 02:08:49;;;;;;;2.35;1.05;;;1.40;99.90;;;;;;5023934;28;20456;-59
2022/04/02 02:11:16;;;;;;;2.95;1.48;;;1.40;99.90;;;;;;5023771;28;20422;-58
2022/04/02 02:13:43;;;;;;;2.63;1.00;;;1.40;99.90;;;;;;5023828;28;20320;-57
2022/04/02 02:16:09;;;;;;;3.15;1.30;;;1.40;99.90;;;;;;5023593;28;20739;-59
2022/04/02 02:18:36;;;;;;;2.17;1.20;;;1.30;99.90;;;;;;5022934;28;20054;-58
2022/04/02 02:21:03;;;;;;;2.30;1.42;;;1.40;99.90;;;;;;5022762;28;20593;-58
2022/04/02 02:23:30;;;;;;;3.25;1.50;;;1.40;99.90;;;;;;5023943;28;20049;-56
2022/04/02 02:25:56;;;;;;;2.28;1.00;;;1.30;99.90;;;;;;5022297;28;20383;-57
2022/04/02 02:28:23;;;;;;;2.20;1.10;;;1.30;99.90;;;;;;5021805;28;20156;-57
2022/04/02 02:30:50;;;;;;;1.48;1.10;;;1.30;99.90;;;;;;5003428;28;20140;-59
2022/04/02 02:36:02;;;;;;;4.07;1.85;;;1.30;99.90;;;;;;5022691;28;20314;-58
2022/04/02 02:38:29;;;;;;;4.00;1.70;;;1.30;99.90;;;;;;5023492;28;20140;-58
2022/04/02 02:40:56;;;;;;;2.83;1.77;;;1.40;99.90;;;;;;5023108;28;20096;-58
2022/04/02 02:43:23;;;;;;;2.80;1.80;;;1.40;99.90;;;;;;5023408;28;20132;-58
2022/04/02 02:45:50;;;;;;;4.03;1.83;;;1.40;99.90;;;;;;5022563;28;20602;-58
2022/04/02 02:48:17;;;;;;;3.10;1.95;;;1.40;99.90;;;;;;5022814;28;20531;-57
2022/04/02 02:50:44;;;;;;;3.30;1.73;;;1.50;99.90;;;;;;5022438;28;20073;-57
2022/04/02 02:53:11;;;;;;;8.80;1.58;;;1.50;99.90;;;;;;5022874;28;20053;-55
2022/04/02 02:55:39;;;;;;;2.28;1.60;;;1.50;99.90;;;;;;5022093;28;20045;-57
2022/04/02 02:58:07;;;;;;;3.15;1.73;;;1.50;99.90;;;;;;5023494;28;20140;-57
2022/04/02 03:00:33;;;;;;;3.47;1.50;;;1.50;99.90;;;;;;5022621;28;20140;-59
2022/04/02 03:03:00;;;;;;;3.25;1.48;;;1.50;99.90;;;;;;5022278;28;20057;-57
2022/04/02 03:05:27;;;;;;;3.72;2.00;;;1.40;99.90;;;;;;5022458;28;20136;-59
2022/04/02 03:07:54;;;;;;;2.90;1.50;;;1.40;99.90;;;;;;5023861;28;20125;-58
2022/04/02 03:10:25;;;;;;;2.60;1.40;;;1.40;99.90;;;;;;5023154;28;20131;-56
2022/04/02 03:12:52;;;;;;;2.33;1.58;;;1.40;99.90;;;;;;5022482;28;20191;-58
2022/04/02 03:15:19;;;;;;;1.95;1.45;;;1.40;99.90;;;;;;5020636;28;20234;-57
2022/04/02 03:17:49;;;;;;;2.60;1.80;;;1.40;99.90;;;;;;5020981;28;20046;-59
2022/04/02 03:20:17;;;;;;;3.90;1.92;;;1.40;99.90;;;;;;5004961;28;20132;-57
2022/04/02 03:22:45;;;;;;;3.05;1.80;;;1.40;99.90;;;;;;5021199;28;20133;-58
2022/04/02 03:25:15;;;;;;;4.47;2.08;;;1.40;99.90;;;;;;5021613;28;20053;-57
2022/04/02 03:27:46;;;;;;;2.30;1.65;;;1.40;99.90;;;;;;5021261;28;20467;-58
2022/04/02 03:30:14;;;;;;;2.72;1.60;;;1.30;99.90;;;;;;5006872;28;20487;-55
2022/04/02 03:32:41;;;;;;;2.40;1.77;;;1.40;99.90;;;;;;5017040;28;20050;-58
2022/04/02 03:35:08;;;;;;;2.00;1.38;;;1.30;99.90;;;;;;5020493;28;20172;-55
2022/04/02 03:37:38;;;;;;;2.35;1.73;;;1.40;99.90;;;;;;5022399;28;20077;-57
2022/04/02 03:40:07;;;;;;;2.95;1.88;;;1.30;99.90;;;;;;5022152;28;20132;-57
2022/04/02 03:42:35;;;;;;;2.40;1.77;;;1.30;99.90;;;;;;5022275;28;20568;-57
2022/04/02 03:45:03;;;;;;;3.03;1.80;;;1.30;99.90;;;;;;5022705;28;20430;-56
2022/04/02 03:47:30;;;;;;;3.30;2.15;;;1.20;99.90;;;;;;5021193;28;20444;-58
2022/04/02 03:49:56;;;;;;;3.60;2.20;;;1.30;99.90;;;;;;5021693;28;20153;-57
2022/04/02 03:52:23;;;;;;;2.83;2.05;;;1.30;99.90;;;;;;5021409;28;20154;-57
2022/04/02 03:54:50;;;;;;;3.13;1.83;;;1.20;99.90;;;;;;5022771;28;20104;-57
2022/04/02 03:57:17;;;;;;;2.25;1.73;;;1.30;99.90;;;;;;5022915;28;20121;-57
2022/04/02 03:59:44;;;;;;;3.67;1.92;;;1.20;99.90;;;;;;5022349;28;20136;-58
2022/04/02 04:02:11;;;;;;;2.35;1.60;;;1.20;99.90;;;;;;5020743;28;20503;-58
2022/04/02 04:04:39;;;;;;;2.08;1.30;;;1.20;99.90;;;;;;5021805;28;20055;-58
2022/04/02 04:07:06;;;;;;;1.98;1.30;;;1.20;99.90;;;;;;5020110;28;20104;-58
2022/04/02 04:09:33;;;;;;;2.20;1.42;;;1.10;99.90;;;;;;5013295;28;20038;-57
2022/04/02 04:11:59;;;;;;;2.63;1.48;;;1.10;99.90;;;;;;5008010;28;20084;-58
2022/04/02 04:14:26;;;;;;;2.38;1.70;;;1.10;99.90;;;;;;5027149;28;20093;-58
2022/04/02 04:16:54;;;;;;;1.77;1.20;;;1.00;99.90;;;;;;5010065;28;20053;-57
2022/04/02 04:19:21;;;;;;;2.08;1.45;;;1.00;99.90;;;;;;5007525;28;20086;-58
2022/04/02 04:21:48;;;;;;;2.22;1.60;;;1.00;99.90;;;;;;5006569;28;20101;-58
2022/04/02 04:24:15;;;;;;;2.72;1.88;;;0.90;99.90;;;;;;5025129;28;20143;-58
2022/04/02 04:26:42;;;;;;;1.85;1.42;;;0.90;99.90;;;;;;5027664;28;20045;-59
2022/04/02 04:29:09;;;;;;;2.15;1.60;;;0.90;99.90;;;;;;5011352;28;20100;-58
2022/04/02 04:31:36;;;;;;;1.90;1.30;;;0.90;99.90;;;;;;5005314;28;20685;-57
2022/04/02 04:34:03;;;;;;;4.10;1.67;;;0.90;99.90;;;;;;5021680;28;20093;-58
2022/04/02 04:36:30;;;;;;;3.55;1.85;;;0.90;99.90;;;;;;5009109;28;20136;-56
2022/04/02 04:38:57;;;;;;;2.85;1.80;;;0.90;99.90;;;;;;5026501;28;20187;-58
2022/04/02 04:41:29;;;;;;;2.63;1.90;;;0.90;99.90;;;;;;5028015;28;20045;-58
2022/04/02 04:43:56;;;;;;;2.92;2.33;;;0.90;99.90;;;;;;5027514;28;20524;-59
2022/04/02 04:46:23;;;;;;;3.30;2.30;;;1.00;99.90;;;;;;5026828;28;20480;-55
2022/04/02 04:48:50;;;;;;;3.42;2.22;;;1.00;99.90;;;;;;5016079;28;20138;-57
2022/04/02 04:51:18;;;;;;;2.55;2.20;;;1.00;99.90;;;;;;5009915;28;20489;-57
2022/04/02 04:53:46;;;;;;;4.25;2.13;;;1.00;99.90;;;;;;5025895;28;20129;-58
2022/04/02 04:56:12;;;;;;;2.83;1.95;;;1.00;99.90;;;;;;5017834;28;20125;-58
2022/04/02 04:58:39;;;;;;;3.17;1.60;;;1.00;99.90;;;;;;5011245;28;20872;-56
2022/04/02 05:01:06;;;;;;;2.33;1.58;;;0.90;99.90;;;;;;5027508;28;20057;-58
2022/04/02 05:03:32;;;;;;;2.58;1.80;;;0.90;99.90;;;;;;5030478;28;20524;-58
2022/04/02 05:05:59;;;;;;;2.50;1.70;;;0.90;99.90;;;;;;5031800;28;20081;-58
2022/04/02 05:08:26;;;;;;;2.60;1.90;;;0.90;99.90;;;;;;5026527;28;20477;-57
2022/04/02 05:10:53;;;;;;;2.42;1.70;;;0.80;99.90;;;;;;5032252;28;20093;-56
2022/04/02 05:13:20;;;;;;;3.95;1.92;;;0.90;99.90;;;;;;5029659;28;20141;-57
2022/04/02 05:15:47;;;;;;;3.20;2.10;;;0.80;99.90;;;;;;5030879;28;20049;-58
2022/04/02 05:18:14;;;;;;;3.65;1.85;;;0.90;99.90;;;;;;5031979;28;20182;-58
2022/04/02 05:20:41;;;;;;;4.00;2.45;;;0.90;99.90;;;;;;5029168;28;20515;-58
2022/04/02 05:23:08;;;;;;;2.83;2.15;;;0.90;99.90;;;;;;5028986;28;20041;-57
2022/04/02 05:25:35;;;;;;;2.78;1.92;;;0.90;99.90;;;;;;5023493;28;20108;-58
2022/04/02 05:28:06;;;;;;;3.90;2.13;;;0.90;99.90;;;;;;5022317;28;20095;-58
2022/04/02 05:30:33;;;;;;;2.63;1.77;;;0.90;99.90;;;;;;5000973;28;20085;-58
2022/04/02 05:33:00;;;;;;;3.28;2.10;;;0.80;99.90;;;;;;5011709;28;20160;-58
2022/04/02 05:35:27;;;;;;;3.60;1.75;;;0.80;99.90;;;;;;5024361;28;20084;-58
2022/04/02 05:37:56;;;;;;;2.97;2.10;;;0.80;99.90;;;;;;5020266;28;20148;-58
2022/04/02 05:40:24;;;;;;;2.63;1.63;;;0.80;99.90;;;;;;5022437;28;20136;-57
2022/04/02 05:42:51;;;;;;;2.35;1.63;;;0.80;99.90;;;;;;5022606;28;20055;-58
2022/04/02 05:45:17;;;;;;;2.50;1.95;;;0.80;99.90;;;;;;5010884;28;20097;-57
2022/04/02 05:47:46;;;;;;;2.70;2.00;;;0.80;99.90;;;;;;5004218;28;20452;-59
2022/04/02 05:50:13;;;;;;;2.30;1.90;;;0.80;99.90;;;;;;5013704;28;20470;-59
2022/04/02 05:53:01;;;;;;;2.78;1.65;;;0.80;99.90;;;;;;5014144;28;20065;-58
2022/04/02 05:55:27;;;;;;;2.10;1.60;;;0.70;99.90;;;;;;5025589;28;20156;-55
2022/04/02 05:57:54;;;;;;;2.30;1.70;;;0.70;99.90;;;;;;5025999;28;20456;-59
2022/04/02 06:00:21;;;;;;;3.17;2.00;;;0.70;99.90;;;;;;5024853;28;20083;-57
2022/04/02 06:02:51;;;;;;;2.65;1.55;;;0.70;99.90;;;;;;5022454;28;20084;-58
2022/04/02 06:05:18;;;;;;;3.90;1.90;;;0.70;99.90;;;;;;5025135;28;20132;-57
2022/04/02 06:07:44;;;;;;;3.58;2.15;;;0.60;99.90;;;;;;5024537;28;20505;-56
2022/04/02 06:10:11;;;;;;;2.25;1.65;;;0.70;99.90;;;;;;5023852;28;20092;-58
2022/04/02 06:12:38;;;;;;;3.25;1.85;;;0.70;99.90;;;;;;5025344;28;20073;-56
2022/04/02 06:15:09;;;;;;;2.92;2.03;;;0.80;99.90;;;;;;5024544;28;20586;-58
2022/04/02 06:17:36;;;;;;;2.83;1.65;;;0.80;99.90;;;;;;5023962;28;20132;-58
2022/04/02 06:20:04;;;;;;;2.53;1.80;;;0.90;99.90;;;;;;5024142;28;20085;-57
2022/04/02 06:22:31;;;;;;;2.90;1.90;;;0.90;99.90;;;;;;5021953;28;20116;-57
2022/04/02 06:24:58;;;;;;;2.95;1.95;;;0.90;99.90;;;;;;5013260;28;20140;-56
2022/04/02 06:27:25;;;;;;;2.35;1.55;;;0.90;99.90;;;;;;5007331;28;20074;-57
2022/04/02 06:29:52;;;;;;;4.25;1.92;;;0.90;99.90;;;;;;5016253;28;20054;-58
2022/04/02 06:32:21;;;;;;;4.78;2.13;;;0.90;99.90;;;;;;5020430;28;20428;-59
2022/04/02 06:34:47;;;;;;;3.35;2.22;;;0.90;99.90;;;;;;5012510;28;20132;-56
2022/04/02 06:37:14;;;;;;;3.78;1.98;;;0.90;99.90;;;;;;5001377;28;20651;-57
2022/04/02 06:39:41;;;;;;;3.70;2.40;;;0.90;99.90;;;;;;5006158;28;20478;-57
2022/04/02 06:42:08;;;;;;;3.33;2.03;;;1.00;99.90;;;;;;5000533;28;20236;-57
2022/04/02 06:44:35;;;;;;;3.55;2.10;;;1.00;99.90;;;;;;5016656;28;20085;-57
2022/04/02 06:47:02;;;;;;;2.63;1.85;;;1.00;99.90;;;;;;5018218;28;20045;-58
2022/04/02 06:49:29;;;;;;;3.65;2.13;;;1.00;99.90;;;;;;5015704;28;20137;-55
2022/04/02 06:51:56;;;;;;;3.28;2.38;;;1.00;99.90;;;;;;4999640;28;20053;-58
2022/04/02 06:54:23;;;;;;;2.97;1.88;;;1.10;99.90;;;;;;5005932;28;20422;-56
2022/04/02 06:56:50;;;;;;;2.65;2.10;;;1.10;99.90;;;;;;4998820;28;20784;-58
2022/04/02 06:59:17;;;;;;;3.53;2.45;;;1.20;99.90;;;;;;5008146;28;20058;-56
2022/04/02 07:01:44;;;;;;;8.45;3.47;;;1.30;99.90;;;;;;5006320;28;20141;-56
2022/04/02 07:04:11;;;;;;;6.32;3.30;;;1.40;99.90;;;;;;5018109;28;20050;-54
2022/04/02 07:06:44;;;;;;;5.72;3.97;;;1.50;99.90;;;;;;5017014;28;20095;-58
2022/04/02 07:09:12;;;;;;;5.40;3.53;;;1.60;99.90;;;;;;5011148;28;20061;-57
2022/04/02 07:11:39;;;;;;;4.88;3.92;;;1.70;99.90;;;;;;5005110;28;20128;-58
2022/04/02 07:14:06;;;;;;;4.47;3.53;;;1.80;99.90;;;;;;5004616;28;20054;-57
2022/04/02 07:16:33;;;;;;;5.00;3.00;;;1.80;99.90;;;;;;5007143;28;20505;-56
2022/04/02 07:19:01;;;;;;;4.70;3.30;;;1.90;99.90;;;;;;5005900;28;20093;-57
2022/04/02 07:21:27;;;;;;;4.85;3.35;;;2.00;99.90;;;;;;4996926;28;20525;-57
2022/04/02 07:23:55;;;;;;;4.50;3.20;;;2.10;99.90;;;;;;5010967;28;20194;-56
2022/04/02 07:26:21;;;;;;;6.13;3.67;;;2.20;99.90;;;;;;5010182;28;20041;-57
2022/04/02 07:28:48;;;;;;;6.35;3.30;;;2.30;99.90;;;;;;5013390;28;20129;-57
2022/04/02 07:31:15;;;;;;;5.63;3.50;;;2.40;99.90;;;;;;5012557;28;20592;-57
2022/04/02 07:33:42;;;;;;;4.28;3.28;;;2.40;99.90;;;;;;5015952;28;20107;-58
2022/04/02 07:36:16;;;;;;;5.07;3.38;;;2.50;99.90;;;;;;5009206;28;20049;-58
2022/04/02 07:39:04;;;;;;;3.47;2.53;;;2.60;99.90;;;;;;4999369;28;20137;-56
2022/04/02 07:41:31;;;;;;;4.90;3.15;;;2.70;99.90;;;;;;5008255;28;20129;-57
2022/04/02 07:44:08;;;;;;;6.25;3.30;;;2.80;99.90;;;;;;5021734;28;20053;-59
2022/04/02 07:46:35;;;;;;;4.43;3.20;;;2.90;99.90;;;;;;5007944;28;20172;-57
2022/04/02 07:49:02;;;;;;;3.83;2.90;;;3.00;99.90;;;;;;5005147;28;20108;-59
2022/04/02 07:51:29;;;;;;;4.78;3.25;;;3.10;99.90;;;;;;5006306;28;20249;-58
2022/04/02 07:54:00;;;;;;;5.18;3.55;;;3.10;99.90;;;;;;5003322;28;20181;-60
2022/04/02 07:56:31;;;;;;;5.43;3.92;;;3.10;99.90;;;;;;5000824;28;20145;-58
2022/04/02 07:59:00;;;;;;;4.95;3.38;;;3.30;99.90;;;;;;5010575;28;20227;-59
2022/04/02 08:01:26;;;;;;;4.15;3.13;;;3.40;99.90;;;;;;5006515;28;20172;-57
2022/04/02 08:03:53;;;;;;;3.72;2.80;;;3.50;99.90;;;;;;5006162;28;20061;-58
2022/04/02 08:06:20;;;;;;;3.70;2.38;;;3.70;99.90;;;;;;5005249;28;20272;-58
2022/04/02 08:08:47;;;;;;;3.67;2.17;;;3.70;99.90;;;;;;5005410;28;20140;-59
2022/04/02 08:11:20;;;;;;;3.22;2.35;;;3.80;99.90;;;;;;4997495;28;20606;-58
2022/04/02 08:13:47;;;;;;;;;;;3.80;99.90;;;;;;5012727;28;20061;-58
2022/04/02 08:16:14;;;;;;;3.25;2.67;;;3.80;99.90;;;;;;4999525;28;19921;-59
2022/04/02 08:18:41;;;;;;;3.60;2.80;;;3.90;99.90;;;;;;5004935;28;20057;-59
2022/04/02 08:21:11;;;;;;;4.60;3.00;;;4.00;99.90;;;;;;5009591;28;20080;-58
2022/04/02 08:23:38;;;;;;;6.32;2.83;;;4.00;99.90;;;;;;5012551;28;20188;-58
2022/04/02 08:26:39;;;;;;;5.85;3.03;;;4.00;99.90;;;;;;5005818;28;20145;-57
2022/04/02 08:29:16;;;;;;;3.05;2.08;;;4.00;99.90;;;;;;5001897;28;20057;-58
2022/04/02 08:31:45;;;;;;;3.10;2.33;;;4.10;99.90;;;;;;5015524;28;20515;-59
2022/04/02 08:35:04;;;;;;;4.18;2.47;;;4.20;99.90;;;;;;5009874;28;20068;-60
2022/04/02 08:37:37;;;;;;;5.03;2.65;;;4.30;99.90;;;;;;5012195;28;20099;-59
2022/04/02 08:40:22;;;;;;;3.87;2.60;;;4.40;99.90;;;;;;5025155;28;20086;-59
2022/04/02 08:43:07;;;;;;;2.33;2.08;;;4.50;99.90;;;;;;5019091;28;20103;-59
2022/04/02 08:45:36;;;;;;;4.22;2.40;;;4.70;99.90;;;;;;5030140;28;20092;-59
2022/04/02 08:48:17;;;;;;;3.95;2.08;;;4.70;99.90;;;;;;5012866;28;20079;-58
2022/04/02 08:50:49;;;;;;;4.90;2.40;;;4.90;99.90;;;;;;5004335;28;20095;-59
2022/04/02 08:53:17;;;;;;;5.30;2.20;;;5.00;99.90;;;;;;5019179;28;20057;-60
2022/04/02 08:56:10;;;;;;;3.90;2.17;;;5.10;99.90;;;;;;5025537;28;20125;-59
2022/04/02 08:58:52;;;;;;;3.90;2.30;;;5.20;99.90;;;;;;5021478;28;20054;-58
2022/04/02 09:01:28;;;;;;;4.22;2.67;;;5.20;99.90;;;;;;5007735;28;20113;-59
2022/04/02 09:04:12;;;;;;;3.97;2.30;;;5.30;99.90;;;;;;5007952;28;20045;-59
2022/04/02 09:07:06;;;;;;;3.00;1.65;;;5.20;99.90;;;;;;5013150;28;20077;-59
2022/04/02 09:10:20;;;;;;;3.95;1.60;;;5.40;99.90;;;;;;5011836;28;20132;-59
2022/04/02 09:12:55;;;;;;;2.97;1.88;;;5.50;99.90;;;;;;5013815;28;20066;-60
2022/04/02 09:15:25;;;;;;;4.10;1.50;;;5.60;99.90;;;;;;5006949;28;20161;-59
2022/04/02 09:18:02;;;;;;;2.72;1.60;;;5.70;99.90;;;;;;5014906;28;20096;-59
2022/04/02 09:20:29;;;;;;;2.55;1.50;;;5.90;99.90;;;;;;5010867;28;20189;-60
2022/04/02 09:23:32;;;;;;;1.98;1.40;;;6.00;99.90;;;;;;5019550;28;20080;-59
2022/04/02 09:26:27;;;;;;;4.65;1.20;;;6.20;99.90;;;;;;5019578;28;20141;-59
2022/04/02 09:29:16;;;;;;;3.35;1.73;;;6.40;99.90;;;;;;5017989;28;20088;-59
2022/04/02 09:32:14;;;;;;;1.80;1.05;;;6.60;99.90;;;;;;5010573;28;20140;-60
2022/04/02 09:35:18;;;;;;;1.70;1.13;;;6.70;99.90;;;;;;5010155;28;20140;-60
2022/04/02 09:38:06;;;;;;;;;;;6.90;99.90;;;;;;5018164;28;20096;-60
2022/04/02 09:40:43;;;;;;;1.98;1.30;;;7.20;99.90;;;;;;5016735;28;19956;-60
2022/04/02 09:43:27;;;;;;;2.03;1.20;;;7.30;99.90;;;;;;5009220;28;20489;-60
2022/04/02 09:46:18;;;;;;;1.42;1.10;;;7.50;99.90;;;;;;5003667;28;20098;-60
2022/04/02 09:48:59;;;;;;;2.33;1.05;;;7.70;99.90;;;;;;5011524;28;20132;-58
2022/04/02 09:51:34;;;;;;;1.38;0.88;;;8.00;99.90;;;;;;5016656;28;20140;-59
2022/04/02 09:54:10;;;;;;;2.22;0.93;;;8.00;99.90;;;;;;5017975;28;20440;-59
2022/04/02 09:56:39;;;;;;;0.88;0.63;;;8.10;99.90;;;;;;5017440;28;20132;-58
2022/04/02 09:59:13;;;;;;;1.33;0.77;;;8.30;99.90;;;;;;5019735;28;20092;-59
2022/04/02 10:02:14;;;;;;;1.25;1.15;;;8.40;99.90;;;;;;5017930;28;20081;-58
2022/04/02 10:04:48;;;;;;;2.22;0.60;;;8.50;99.90;;;;;;5001730;28;20062;-59
2022/04/02 10:07:46;;;;;;;3.08;0.90;;;8.60;99.90;;;;;;4997492;28;20441;-59
2022/04/02 10:10:12;;;;;;;1.50;0.70;;;8.70;99.90;;;;;;5012743;28;20558;-60
2022/04/02 10:12:42;;;;;;;2.25;1.08;;;8.80;99.90;;;;;;5017247;28;20506;-59
2022/04/02 10:15:10;;;;;;;1.33;0.93;;;8.70;99.90;;;;;;5016231;28;20428;-59
2022/04/02 10:17:36;;;;;;;4.00;1.10;;;8.50;99.90;;;;;;5001157;28;20049;-59
2022/04/02 10:20:04;;;;;;;1.95;0.90;;;8.50;99.90;;;;;;5016753;28;20444;-59
2022/04/02 10:22:44;;;;;;;1.65;0.68;;;8.50;99.90;;;;;;5009368;28;20144;-59
2022/04/02 10:25:14;;;;;;;1.70;0.80;;;8.50;99.90;;;;;;4999223;28;20064;-59
2022/04/02 10:27:42;;;;;;;1.80;0.80;;;8.60;99.90;;;;;;5011447;28;20050;-59
2022/04/02 10:30:16;;;;;;;2.42;0.98;;;8.40;99.20;;;;;;5023130;28;20049;-59
2022/04/02 10:32:54;;;;;;;;;;;7.90;99.20;;;;;;5033703;28;20392;-59
2022/04/02 10:35:23;;;;;;;1.85;0.80;;;7.80;99.90;;;;;;5017441;28;20022;-59
2022/04/02 10:38:08;;;;;;;2.53;0.90;;;7.90;99.90;;;;;;5017143;28;20156;-60
2022/04/02 10:40:48;;;;;;;1.20;0.70;;;8.10;99.90;;;;;;4997062;28;20058;-59
2022/04/02 10:43:33;;;;;;;1.08;0.73;;;8.20;99.00;;;;;;4996997;28;20129;-59
2022/04/02 10:46:03;;;;;;;2.15;1.10;;;8.50;99.10;;;;;;4997849;28;20359;-60
2022/04/02 10:48:39;;;;;;;1.38;0.95;;;8.70;99.90;;;;;;4997836;28;20365;-59
2022/04/02 10:51:07;;;;;;;1.27;0.80;;;8.90;99.10;;;;;;5012560;28;20107;-60
2022/04/02 10:53:34;;;;;;;1.60;0.65;;;9.00;97.70;;;;;;5002423;28;20108;-59
2022/04/02 10:56:02;;;;;;;1.30;0.70;;;8.90;98.40;;;;;;5022592;28;20055;-59
2022/04/02 10:58:35;;;;;;;0.68;0.60;;;8.60;97.30;;;;;;4997517;28;20132;-59
2022/04/02 11:01:03;;;;;;;1.75;0.77;;;8.50;98.40;;;;;;5010563;28;20080;-60
2022/04/02 11:03:41;;;;;;;1.20;0.80;;;8.30;98.40;;;;;;5007798;28;20504;-59
2022/04/02 11:06:08;;;;;;;1.30;0.88;;;8.10;98.00;;;;;;4997004;28;20112;-59
2022/04/02 11:08:35;;;;;;;2.55;0.60;;;8.00;97.90;;;;;;5000813;28;20054;-59
2022/04/02 11:11:19;;;;;;;1.02;0.60;;;8.00;98.10;;;;;;5008956;28;20049;-59
2022/04/02 11:13:46;;;;;;;1.33;0.47;;;8.10;97.90;;;;;;5008411;28;20092;-59
2022/04/02 11:16:14;;;;;;;0.68;0.55;;;8.10;97.00;;;;;;5014978;28;20140;-59
2022/04/02 11:19:53;;;;;;;1.88;0.60;;;8.10;96.40;;;;;;5010934;28;20072;-59
2022/04/02 11:21:32;;;;;;;1.10;0.60;;;8.30;96.60;;;;;;5007524;28;20137;-59
2022/04/02 11:24:02;;;;;;;1.77;1.08;;;8.40;96.50;;;;;;5016348;28;20057;-59
2022/04/02 11:26:29;;;;;;;1.27;0.60;;;8.80;97.30;;;;;;5037564;28;20056;-59
2022/04/02 11:28:56;;;;;;;1.73;0.77;;;9.10;97.10;;;;;;5026315;28;20339;-59
2022/04/02 11:31:27;;;;;;;1.92;0.70;;;9.30;96.30;;;;;;5009740;28;20147;-62
2022/04/02 11:33:54;;;;;;;0.93;0.55;;;9.60;95.50;;;;;;4999667;28;20053;-59
2022/04/02 11:36:47;;;;;;;0.70;0.52;;;10.00;95.30;;;;;;5018921;28;20080;-59
2022/04/02 11:39:41;;;;;;;0.70;0.50;;;10.40;92.70;;;;;;5027238;28;20144;-59
2022/04/02 11:42:08;;;;;;;0.80;0.43;;;10.60;91.90;;;;;;5017258;28;20132;-59
2022/04/02 11:44:36;;;;;;;1.27;0.50;;;10.70;91.80;;;;;;5011013;28;20140;-59
2022/04/02 11:47:05;;;;;;;1.17;0.52;;;10.70;91.80;;;;;;5001135;28;20104;-59
2022/04/02 11:49:32;;;;;;;1.85;0.80;;;10.60;91.20;;;;;;5006961;28;20533;-59
2022/04/02 11:52:10;;;;;;;1.45;0.60;;;10.70;90.90;;;;;;5012168;28;20111;-59
2022/04/02 11:54:48;;;;;;;1.55;0.70;;;10.90;90.60;;;;;;4999356;28;20089;-60
2022/04/02 11:57:16;;;;;;;0.60;0.60;;;11.30;89.30;;;;;;4999850;28;20941;-60
2022/04/02 11:59:56;;;;;;;1.40;0.75;;;11.40;86.70;;;;;;4997411;28;20725;-59
2022/04/02 12:02:37;;;;;;;1.02;0.70;;;11.60;84.50;;;;;;5007371;28;20088;-60
2022/04/02 12:05:06;;;;;;;1.20;0.57;;;11.80;81.70;;;;;;4995867;28;20057;-59
2022/04/02 12:07:43;;;;;;;0.93;0.60;;;11.90;77.20;;;;;;5003465;28;20151;-59
2022/04/02 12:10:32;;;;;;;1.25;0.60;;;12.40;75.20;;;;;;5020639;28;20049;-59
2022/04/02 12:13:02;;;;;;;1.60;0.68;;;12.70;70.30;;;;;;5017320;28;20053;-60
2022/04/02 12:15:29;;;;;;;1.05;0.60;;;12.80;73.30;;;;;;5014771;28;20290;-60
2022/04/02 12:18:03;;;;;;;0.65;0.52;;;12.80;69.20;;;;;;5013077;28;20053;-60
2022/04/02 12:20:32;;;;;;;1.02;0.70;;;12.80;69.40;;;;;;5005811;28;20137;-60
2022/04/02 12:23:15;;;;;;;1.35;0.63;;;12.90;68.30;;;;;;5001825;28;20462;-60
2022/04/02 12:25:47;;;;;;;1.67;0.50;;;12.90;68.40;;;;;;5016895;28;20049;-60
2022/04/02 12:28:17;;;;;;;0.63;0.47;;;13.00;67.70;;;;;;5013867;28;20166;-60
2022/04/02 12:30:48;;;;;;;0.68;0.40;;;12.50;65.40;;;;;;5015075;28;20055;-59
2022/04/02 12:33:23;;;;;;;1.67;0.60;;;12.10;67.90;;;;;;5025520;28;20037;-60
2022/04/02 12:35:59;;;;;;;0.70;0.35;;;11.70;67.00;;;;;;5021310;28;20160;-60
2022/04/02 12:38:30;;;;;;;1.00;0.50;;;11.40;65.00;;;;;;5022203;28;20121;-60
2022/04/02 12:40:58;;;;;;;0.60;0.60;;;11.30;65.20;;;;;;5015968;28;20076;-59
2022/04/02 12:43:37;;;;;;;0.85;0.70;;;11.20;65.40;;;;;;5011848;28;20085;-60
2022/04/02 12:46:03;;;;;;;0.80;0.63;;;11.80;67.40;;;;;;5008076;28;20154;-60
2022/04/02 12:48:44;;;;;;;1.17;0.60;;;12.80;65.70;;;;;;5022481;28;20119;-60
2022/04/02 12:51:15;;;;;;;0.57;0.45;;;13.10;63.00;;;;;;5030483;28;20084;-60
2022/04/02 12:53:56;;;;;;;0.68;0.50;;;13.00;63.30;;;;;;5008860;28;20067;-59
2022/04/02 12:56:35;;;;;;;1.52;0.60;;;12.80;64.40;;;;;;5035006;28;20144;-59
2022/04/02 12:59:17;;;;;;;3.05;0.80;;;12.10;63.70;;;;;;5022292;28;20096;-59
2022/04/02 13:01:43;;;;;;;1.05;0.50;;;11.20;65.90;;;;;;4999553;28;20485;-58
2022/04/02 13:04:11;;;;;;;0.85;0.50;;;10.90;66.50;;;;;;4999960;28;20320;-59
2022/04/02 13:06:44;;;;;;;1.02;0.60;;;10.70;65.20;;;;;;4999626;28;20487;-59
2022/04/02 13:09:21;;;;;;;0.40;0.40;;;10.70;67.60;;;;;;5002905;28;20136;-59
2022/04/02 13:12:02;;;;;;;0.40;0.40;;;10.70;71.70;;;;;;5018175;28;20085;-59
2022/04/02 13:14:39;;;;;;;0.68;0.57;;;10.60;72.90;;;;;;5017473;28;20230;-58
2022/04/02 13:17:07;;;;;;;0.60;0.40;;;10.70;72.20;;;;;;4999588;28;20049;-59
2022/04/02 13:22:47;;;;;;;2.15;0.95;;;11.20;69.60;;;;;;5003799;28;20163;-59